sensor_id;sensor_type;location;lat;lon;timestamp;P1;durP1;ratioP1;P2;durP2;ratioP2
66425;SDS011;53237;46.158;14.604;2024-03-17T00:00:17;7.45;;;5.25;;
66425;SDS011;53237;46.158;14.604;2024-03-17T00:02:44;8.80;;;5.38;;
66425;SDS011;53237;46.158;14.604;2024-03-17T00:05:10;6.70;;;5.07;;
66425;SDS011;53237;46.158;14.604;2024-03-17T00:07:36;9.30;;;5.32;;
66425;SDS011;53237;46.158;14.604;2024-03-17T00:10:03;6.95;;;4.85;;
66425;SDS011;53237;46.158;14.604;2024-03-17T00:12:29;7.25;;;4.68;;
66425;SDS011;53237;46.158;14.604;2024-03-17T00:14:55;6.95;;;4.82;;
66425;SDS011;53237;46.158;14.604;2024-03-17T00:17:21;5.70;;;4.13;;
66425;SDS011;53237;46.158;14.604;2024-03-17T00:19:48;7.38;;;4.47;;
66425;SDS011;53237;46.158;14.604;2024-03-17T00:22:14;6.53;;;4.78;;
66425;SDS011;53237;46.158;14.604;2024-03-17T00:24:40;7.32;;;4.45;;
66425;SDS011;53237;46.158;14.604;2024-03-17T00:27:06;7.32;;;4.65;;
66425;SDS011;53237;46.158;14.604;2024-03-17T00:29:32;6.45;;;4.70;;
66425;SDS011;53237;46.158;14.604;2024-03-17T00:31:58;6.93;;;4.85;;
66425;SDS011;53237;46.158;14.604;2024-03-17T00:34:24;7.55;;;4.82;;
66425;SDS011;53237;46.158;14.604;2024-03-17T00:36:50;6.63;;;4.60;;
66425;SDS011;53237;46.158;14.604;2024-03-17T00:39:16;6.00;;;4.57;;
66425;SDS011;53237;46.158;14.604;2024-03-17T00:41:43;7.30;;;4.45;;
66425;SDS011;53237;46.158;14.604;2024-03-17T00:44:09;5.95;;;4.22;;
66425;SDS011;53237;46.158;14.604;2024-03-17T00:46:35;7.60;;;4.75;;
66425;SDS011;53237;46.158;14.604;2024-03-17T00:49:02;6.82;;;4.43;;
66425;SDS011;53237;46.158;14.604;2024-03-17T00:51:27;8.60;;;5.07;;
66425;SDS011;53237;46.158;14.604;2024-03-17T00:53:54;5.88;;;4.15;;
66425;SDS011;53237;46.158;14.604;2024-03-17T00:56:21;6.55;;;4.43;;
66425;SDS011;53237;46.158;14.604;2024-03-17T00:58:47;5.45;;;4.05;;
66425;SDS011;53237;46.158;14.604;2024-03-17T01:01:16;8.15;;;4.90;;
66425;SDS011;53237;46.158;14.604;2024-03-17T01:03:44;7.90;;;4.82;;
66425;SDS011;53237;46.158;14.604;2024-03-17T01:06:10;6.57;;;4.05;;
66425;SDS011;53237;46.158;14.604;2024-03-17T01:08:36;6.10;;;4.60;;
66425;SDS011;53237;46.158;14.604;2024-03-17T01:11:02;7.72;;;4.63;;
66425;SDS011;53237;46.158;14.604;2024-03-17T01:13:28;5.93;;;3.90;;
66425;SDS011;53237;46.158;14.604;2024-03-17T01:15:54;7.53;;;4.78;;
66425;SDS011;53237;46.158;14.604;2024-03-17T01:18:21;6.63;;;4.63;;
66425;SDS011;53237;46.158;14.604;2024-03-17T01:20:47;5.55;;;4.20;;
66425;SDS011;53237;46.158;14.604;2024-03-17T01:23:13;6.22;;;4.45;;
66425;SDS011;53237;46.158;14.604;2024-03-17T01:25:39;5.95;;;4.50;;
66425;SDS011;53237;46.158;14.604;2024-03-17T01:28:05;7.82;;;4.47;;
66425;SDS011;53237;46.158;14.604;2024-03-17T01:30:35;7.57;;;4.50;;
66425;SDS011;53237;46.158;14.604;2024-03-17T01:33:01;5.88;;;4.22;;
66425;SDS011;53237;46.158;14.604;2024-03-17T01:35:27;5.18;;;4.00;;
66425;SDS011;53237;46.158;14.604;2024-03-17T01:37:53;6.18;;;4.18;;
66425;SDS011;53237;46.158;14.604;2024-03-17T01:40:19;7.50;;;4.25;;
66425;SDS011;53237;46.158;14.604;2024-03-17T01:42:46;8.43;;;4.10;;
66425;SDS011;53237;46.158;14.604;2024-03-17T01:47:41;9.80;;;5.20;;
66425;SDS011;53237;46.158;14.604;2024-03-17T01:50:08;8.40;;;4.70;;
66425;SDS011;53237;46.158;14.604;2024-03-17T01:52:34;7.30;;;4.97;;
66425;SDS011;53237;46.158;14.604;2024-03-17T01:55:02;7.57;;;4.95;;
66425;SDS011;53237;46.158;14.604;2024-03-17T01:57:29;9.07;;;5.32;;
66425;SDS011;53237;46.158;14.604;2024-03-17T01:59:55;8.98;;;4.97;;
66425;SDS011;53237;46.158;14.604;2024-03-17T02:02:21;9.60;;;5.05;;
66425;SDS011;53237;46.158;14.604;2024-03-17T02:04:47;10.02;;;6.40;;
66425;SDS011;53237;46.158;14.604;2024-03-17T02:07:13;9.23;;;5.88;;
66425;SDS011;53237;46.158;14.604;2024-03-17T02:09:40;8.15;;;5.13;;
66425;SDS011;53237;46.158;14.604;2024-03-17T02:12:08;8.88;;;5.28;;
66425;SDS011;53237;46.158;14.604;2024-03-17T02:14:34;8.25;;;5.20;;
66425;SDS011;53237;46.158;14.604;2024-03-17T02:17:00;9.48;;;5.05;;
66425;SDS011;53237;46.158;14.604;2024-03-17T02:19:27;10.48;;;5.50;;
66425;SDS011;53237;46.158;14.604;2024-03-17T02:21:53;10.20;;;6.20;;
66425;SDS011;53237;46.158;14.604;2024-03-17T02:24:19;9.77;;;5.35;;
66425;SDS011;53237;46.158;14.604;2024-03-17T02:26:45;8.95;;;5.70;;
66425;SDS011;53237;46.158;14.604;2024-03-17T02:29:11;9.07;;;5.50;;
66425;SDS011;53237;46.158;14.604;2024-03-17T02:31:37;11.85;;;5.78;;
66425;SDS011;53237;46.158;14.604;2024-03-17T02:34:03;8.30;;;5.25;;
66425;SDS011;53237;46.158;14.604;2024-03-17T02:36:29;10.75;;;6.03;;
66425;SDS011;53237;46.158;14.604;2024-03-17T02:38:55;10.65;;;5.43;;
66425;SDS011;53237;46.158;14.604;2024-03-17T02:41:43;11.93;;;5.88;;
66425;SDS011;53237;46.158;14.604;2024-03-17T02:44:10;8.68;;;6.10;;
66425;SDS011;53237;46.158;14.604;2024-03-17T02:46:37;8.90;;;6.30;;
66425;SDS011;53237;46.158;14.604;2024-03-17T02:49:03;9.93;;;5.85;;
66425;SDS011;53237;46.158;14.604;2024-03-17T02:51:30;9.77;;;5.88;;
66425;SDS011;53237;46.158;14.604;2024-03-17T02:53:56;11.10;;;6.10;;
66425;SDS011;53237;46.158;14.604;2024-03-17T02:56:24;10.45;;;6.15;;
66425;SDS011;53237;46.158;14.604;2024-03-17T02:58:50;10.02;;;5.60;;
66425;SDS011;53237;46.158;14.604;2024-03-17T03:01:17;9.13;;;5.65;;
66425;SDS011;53237;46.158;14.604;2024-03-17T03:03:44;8.35;;;5.45;;
66425;SDS011;53237;46.158;14.604;2024-03-17T03:06:10;10.70;;;5.70;;
66425;SDS011;53237;46.158;14.604;2024-03-17T03:08:38;9.63;;;5.65;;
66425;SDS011;53237;46.158;14.604;2024-03-17T03:11:06;8.05;;;5.35;;
66425;SDS011;53237;46.158;14.604;2024-03-17T03:13:32;8.50;;;5.32;;
66425;SDS011;53237;46.158;14.604;2024-03-17T03:15:58;8.40;;;5.80;;
66425;SDS011;53237;46.158;14.604;2024-03-17T03:18:24;9.77;;;6.00;;
66425;SDS011;53237;46.158;14.604;2024-03-17T03:20:51;7.95;;;5.30;;
66425;SDS011;53237;46.158;14.604;2024-03-17T03:23:17;9.65;;;5.90;;
66425;SDS011;53237;46.158;14.604;2024-03-17T03:25:44;9.45;;;5.47;;
66425;SDS011;53237;46.158;14.604;2024-03-17T03:28:10;7.47;;;5.22;;
66425;SDS011;53237;46.158;14.604;2024-03-17T03:30:36;10.30;;;6.15;;
66425;SDS011;53237;46.158;14.604;2024-03-17T03:33:02;7.45;;;5.20;;
66425;SDS011;53237;46.158;14.604;2024-03-17T03:35:30;7.30;;;5.25;;
66425;SDS011;53237;46.158;14.604;2024-03-17T03:37:56;8.95;;;5.80;;
66425;SDS011;53237;46.158;14.604;2024-03-17T03:40:22;8.68;;;5.30;;
66425;SDS011;53237;46.158;14.604;2024-03-17T03:42:50;9.35;;;5.13;;
66425;SDS011;53237;46.158;14.604;2024-03-17T03:45:16;9.20;;;5.55;;
66425;SDS011;53237;46.158;14.604;2024-03-17T03:47:42;7.18;;;4.63;;
66425;SDS011;53237;46.158;14.604;2024-03-17T03:50:11;8.70;;;5.50;;
66425;SDS011;53237;46.158;14.604;2024-03-17T03:52:38;7.88;;;5.30;;
66425;SDS011;53237;46.158;14.604;2024-03-17T03:55:07;8.38;;;5.18;;
66425;SDS011;53237;46.158;14.604;2024-03-17T03:57:35;7.43;;;4.88;;
66425;SDS011;53237;46.158;14.604;2024-03-17T04:00:05;7.18;;;4.80;;
66425;SDS011;53237;46.158;14.604;2024-03-17T04:02:41;9.73;;;5.18;;
66425;SDS011;53237;46.158;14.604;2024-03-17T04:05:07;8.95;;;5.50;;
66425;SDS011;53237;46.158;14.604;2024-03-17T04:07:33;9.50;;;5.13;;
66425;SDS011;53237;46.158;14.604;2024-03-17T04:10:01;7.53;;;4.97;;
66425;SDS011;53237;46.158;14.604;2024-03-17T04:12:27;8.60;;;5.13;;
66425;SDS011;53237;46.158;14.604;2024-03-17T04:14:53;7.10;;;4.97;;
66425;SDS011;53237;46.158;14.604;2024-03-17T04:17:20;9.18;;;5.38;;
66425;SDS011;53237;46.158;14.604;2024-03-17T04:19:50;6.55;;;4.60;;
66425;SDS011;53237;46.158;14.604;2024-03-17T04:22:16;6.78;;;4.72;;
66425;SDS011;53237;46.158;14.604;2024-03-17T04:24:43;9.13;;;4.82;;
66425;SDS011;53237;46.158;14.604;2024-03-17T04:27:09;8.57;;;5.47;;
66425;SDS011;53237;46.158;14.604;2024-03-17T04:29:35;6.40;;;4.68;;
66425;SDS011;53237;46.158;14.604;2024-03-17T04:32:01;7.13;;;5.03;;
66425;SDS011;53237;46.158;14.604;2024-03-17T04:34:27;6.88;;;4.60;;
66425;SDS011;53237;46.158;14.604;2024-03-17T04:36:53;8.77;;;5.47;;
66425;SDS011;53237;46.158;14.604;2024-03-17T04:39:19;9.98;;;5.07;;
66425;SDS011;53237;46.158;14.604;2024-03-17T04:41:47;7.97;;;4.57;;
66425;SDS011;53237;46.158;14.604;2024-03-17T04:44:13;6.63;;;4.40;;
66425;SDS011;53237;46.158;14.604;2024-03-17T04:46:39;6.45;;;4.35;;
66425;SDS011;53237;46.158;14.604;2024-03-17T04:49:05;6.53;;;4.22;;
66425;SDS011;53237;46.158;14.604;2024-03-17T04:51:31;7.30;;;4.53;;
66425;SDS011;53237;46.158;14.604;2024-03-17T04:53:58;5.05;;;3.72;;
66425;SDS011;53237;46.158;14.604;2024-03-17T04:56:24;6.97;;;4.13;;
66425;SDS011;53237;46.158;14.604;2024-03-17T04:58:50;7.43;;;4.57;;
66425;SDS011;53237;46.158;14.604;2024-03-17T05:01:17;6.53;;;4.40;;
66425;SDS011;53237;46.158;14.604;2024-03-17T05:03:42;6.13;;;3.80;;
66425;SDS011;53237;46.158;14.604;2024-03-17T05:06:09;5.78;;;4.05;;
66425;SDS011;53237;46.158;14.604;2024-03-17T05:08:35;5.82;;;4.60;;
66425;SDS011;53237;46.158;14.604;2024-03-17T05:11:02;7.30;;;4.35;;
66425;SDS011;53237;46.158;14.604;2024-03-17T05:13:30;5.90;;;3.88;;
66425;SDS011;53237;46.158;14.604;2024-03-17T05:15:56;6.80;;;4.30;;
66425;SDS011;53237;46.158;14.604;2024-03-17T05:18:22;6.20;;;3.83;;
66425;SDS011;53237;46.158;14.604;2024-03-17T05:21:00;12.52;;;5.35;;
66425;SDS011;53237;46.158;14.604;2024-03-17T05:23:27;6.18;;;3.78;;
66425;SDS011;53237;46.158;14.604;2024-03-17T05:25:53;5.93;;;3.85;;
66425;SDS011;53237;46.158;14.604;2024-03-17T05:28:19;6.38;;;4.28;;
66425;SDS011;53237;46.158;14.604;2024-03-17T05:30:45;6.05;;;4.07;;
66425;SDS011;53237;46.158;14.604;2024-03-17T05:33:13;9.65;;;4.78;;
66425;SDS011;53237;46.158;14.604;2024-03-17T05:35:39;4.53;;;3.47;;
66425;SDS011;53237;46.158;14.604;2024-03-17T05:38:05;5.20;;;3.45;;
66425;SDS011;53237;46.158;14.604;2024-03-17T05:40:35;6.20;;;3.75;;
66425;SDS011;53237;46.158;14.604;2024-03-17T05:43:06;4.82;;;3.78;;
66425;SDS011;53237;46.158;14.604;2024-03-17T05:45:32;5.13;;;3.85;;
66425;SDS011;53237;46.158;14.604;2024-03-17T05:47:58;4.78;;;3.50;;
66425;SDS011;53237;46.158;14.604;2024-03-17T05:50:24;4.75;;;3.50;;
66425;SDS011;53237;46.158;14.604;2024-03-17T05:52:52;4.80;;;3.35;;
66425;SDS011;53237;46.158;14.604;2024-03-17T05:55:18;4.28;;;3.78;;
66425;SDS011;53237;46.158;14.604;2024-03-17T05:57:44;5.68;;;4.00;;
66425;SDS011;53237;46.158;14.604;2024-03-17T06:00:10;5.88;;;3.95;;
66425;SDS011;53237;46.158;14.604;2024-03-17T06:02:40;5.78;;;3.72;;
66425;SDS011;53237;46.158;14.604;2024-03-17T06:05:06;6.68;;;4.63;;
66425;SDS011;53237;46.158;14.604;2024-03-17T06:07:35;6.55;;;4.22;;
66425;SDS011;53237;46.158;14.604;2024-03-17T06:10:01;7.55;;;5.22;;
66425;SDS011;53237;46.158;14.604;2024-03-17T06:12:27;13.48;;;6.55;;
66425;SDS011;53237;46.158;14.604;2024-03-17T06:14:53;5.13;;;4.10;;
66425;SDS011;53237;46.158;14.604;2024-03-17T06:17:19;7.07;;;4.97;;
66425;SDS011;53237;46.158;14.604;2024-03-17T06:19:45;6.47;;;4.47;;
66425;SDS011;53237;46.158;14.604;2024-03-17T06:22:11;7.10;;;5.07;;
66425;SDS011;53237;46.158;14.604;2024-03-17T06:24:37;6.03;;;4.03;;
66425;SDS011;53237;46.158;14.604;2024-03-17T06:27:03;6.57;;;4.07;;
66425;SDS011;53237;46.158;14.604;2024-03-17T06:29:32;5.18;;;3.72;;
66425;SDS011;53237;46.158;14.604;2024-03-17T06:31:58;6.18;;;4.90;;
66425;SDS011;53237;46.158;14.604;2024-03-17T06:34:25;5.72;;;4.10;;
66425;SDS011;53237;46.158;14.604;2024-03-17T06:36:51;6.72;;;4.15;;
66425;SDS011;53237;46.158;14.604;2024-03-17T06:39:17;5.55;;;4.25;;
66425;SDS011;53237;46.158;14.604;2024-03-17T06:41:46;7.25;;;4.38;;
66425;SDS011;53237;46.158;14.604;2024-03-17T06:44:12;6.03;;;3.78;;
66425;SDS011;53237;46.158;14.604;2024-03-17T06:46:38;7.47;;;5.28;;
66425;SDS011;53237;46.158;14.604;2024-03-17T06:49:04;10.18;;;5.45;;
66425;SDS011;53237;46.158;14.604;2024-03-17T06:51:30;11.20;;;6.10;;
66425;SDS011;53237;46.158;14.604;2024-03-17T06:53:56;9.30;;;5.03;;
66425;SDS011;53237;46.158;14.604;2024-03-17T06:56:23;8.75;;;5.32;;
66425;SDS011;53237;46.158;14.604;2024-03-17T06:58:50;8.20;;;4.88;;
66425;SDS011;53237;46.158;14.604;2024-03-17T07:01:17;10.82;;;4.97;;
66425;SDS011;53237;46.158;14.604;2024-03-17T07:03:44;6.72;;;4.63;;
66425;SDS011;53237;46.158;14.604;2024-03-17T07:06:10;6.53;;;4.28;;
66425;SDS011;53237;46.158;14.604;2024-03-17T07:08:36;7.43;;;4.75;;
66425;SDS011;53237;46.158;14.604;2024-03-17T07:13:38;8.60;;;5.78;;
66425;SDS011;53237;46.158;14.604;2024-03-17T07:16:04;7.43;;;4.88;;
66425;SDS011;53237;46.158;14.604;2024-03-17T07:18:31;6.70;;;4.50;;
66425;SDS011;53237;46.158;14.604;2024-03-17T07:20:58;8.48;;;5.28;;
66425;SDS011;53237;46.158;14.604;2024-03-17T07:23:24;7.22;;;4.97;;
66425;SDS011;53237;46.158;14.604;2024-03-17T07:25:54;6.15;;;4.57;;
66425;SDS011;53237;46.158;14.604;2024-03-17T07:28:20;18.23;;;12.05;;
66425;SDS011;53237;46.158;14.604;2024-03-17T07:30:50;6.72;;;4.72;;
66425;SDS011;53237;46.158;14.604;2024-03-17T07:33:16;5.10;;;3.70;;
66425;SDS011;53237;46.158;14.604;2024-03-17T07:35:49;5.70;;;3.95;;
66425;SDS011;53237;46.158;14.604;2024-03-17T07:38:15;10.63;;;5.53;;
66425;SDS011;53237;46.158;14.604;2024-03-17T07:40:41;5.90;;;4.03;;
66425;SDS011;53237;46.158;14.604;2024-03-17T07:43:07;4.63;;;3.65;;
66425;SDS011;53237;46.158;14.604;2024-03-17T07:45:33;4.93;;;3.63;;
66425;SDS011;53237;46.158;14.604;2024-03-17T07:47:59;4.65;;;3.10;;
66425;SDS011;53237;46.158;14.604;2024-03-17T07:50:25;3.30;;;3.00;;
66425;SDS011;53237;46.158;14.604;2024-03-17T07:52:52;6.03;;;3.30;;
66425;SDS011;53237;46.158;14.604;2024-03-17T07:55:18;3.83;;;3.10;;
66425;SDS011;53237;46.158;14.604;2024-03-17T07:57:44;3.92;;;3.05;;
66425;SDS011;53237;46.158;14.604;2024-03-17T08:00:10;5.25;;;3.60;;
66425;SDS011;53237;46.158;14.604;2024-03-17T08:02:46;5.25;;;3.85;;
66425;SDS011;53237;46.158;14.604;2024-03-17T08:05:12;4.78;;;3.70;;
66425;SDS011;53237;46.158;14.604;2024-03-17T08:07:38;3.88;;;3.33;;
66425;SDS011;53237;46.158;14.604;2024-03-17T08:10:05;4.38;;;3.28;;
66425;SDS011;53237;46.158;14.604;2024-03-17T08:12:31;4.75;;;3.58;;
66425;SDS011;53237;46.158;14.604;2024-03-17T08:14:57;3.47;;;3.17;;
66425;SDS011;53237;46.158;14.604;2024-03-17T08:17:24;4.72;;;3.20;;
66425;SDS011;53237;46.158;14.604;2024-03-17T08:19:50;3.92;;;3.50;;
66425;SDS011;53237;46.158;14.604;2024-03-17T08:22:16;5.10;;;3.25;;
66425;SDS011;53237;46.158;14.604;2024-03-17T08:24:42;3.30;;;3.00;;
66425;SDS011;53237;46.158;14.604;2024-03-17T08:27:08;4.32;;;3.60;;
66425;SDS011;53237;46.158;14.604;2024-03-17T08:29:34;3.47;;;3.03;;
66425;SDS011;53237;46.158;14.604;2024-03-17T08:32:00;4.80;;;3.55;;
66425;SDS011;53237;46.158;14.604;2024-03-17T08:34:26;6.05;;;4.22;;
66425;SDS011;53237;46.158;14.604;2024-03-17T08:36:52;6.28;;;5.68;;
66425;SDS011;53237;46.158;14.604;2024-03-17T08:39:18;4.78;;;2.90;;
66425;SDS011;53237;46.158;14.604;2024-03-17T08:41:44;4.05;;;2.90;;
66425;SDS011;53237;46.158;14.604;2024-03-17T08:44:11;3.30;;;3.00;;
66425;SDS011;53237;46.158;14.604;2024-03-17T08:46:37;4.85;;;3.15;;
66425;SDS011;53237;46.158;14.604;2024-03-17T08:49:03;3.90;;;3.00;;
66425;SDS011;53237;46.158;14.604;2024-03-17T08:51:30;3.42;;;3.13;;
66425;SDS011;53237;46.158;14.604;2024-03-17T08:53:57;4.40;;;2.85;;
66425;SDS011;53237;46.158;14.604;2024-03-17T08:56:23;4.40;;;3.65;;
66425;SDS011;53237;46.158;14.604;2024-03-17T08:58:49;4.15;;;3.70;;
66425;SDS011;53237;46.158;14.604;2024-03-17T09:01:15;3.47;;;3.17;;
66425;SDS011;53237;46.158;14.604;2024-03-17T09:03:41;4.25;;;3.75;;
66425;SDS011;53237;46.158;14.604;2024-03-17T09:06:15;3.80;;;3.00;;
66425;SDS011;53237;46.158;14.604;2024-03-17T09:08:41;4.35;;;4.03;;
66425;SDS011;53237;46.158;14.604;2024-03-17T09:11:12;4.43;;;4.05;;
66425;SDS011;53237;46.158;14.604;2024-03-17T09:13:38;3.65;;;3.08;;
66425;SDS011;53237;46.158;14.604;2024-03-17T09:16:04;3.30;;;3.00;;
66425;SDS011;53237;46.158;14.604;2024-03-17T09:18:32;5.35;;;4.85;;
66425;SDS011;53237;46.158;14.604;2024-03-17T09:23:24;4.82;;;4.43;;
66425;SDS011;53237;46.158;14.604;2024-03-17T09:25:57;3.45;;;2.67;;
66425;SDS011;53237;46.158;14.604;2024-03-17T09:28:23;4.35;;;3.95;;
66425;SDS011;53237;46.158;14.604;2024-03-17T09:30:49;5.95;;;5.40;;
66425;SDS011;53237;46.158;14.604;2024-03-17T09:33:17;5.43;;;4.90;;
66425;SDS011;53237;46.158;14.604;2024-03-17T09:35:44;3.95;;;3.65;;
66425;SDS011;53237;46.158;14.604;2024-03-17T09:38:10;7.38;;;6.75;;
66425;SDS011;53237;46.158;14.604;2024-03-17T09:40:36;5.72;;;5.13;;
66425;SDS011;53237;46.158;14.604;2024-03-17T09:43:02;5.75;;;5.25;;
66425;SDS011;53237;46.158;14.604;2024-03-17T09:45:28;4.82;;;4.43;;
66425;SDS011;53237;46.158;14.604;2024-03-17T09:47:55;4.97;;;4.47;;
66425;SDS011;53237;46.158;14.604;2024-03-17T09:50:21;4.63;;;4.22;;
66425;SDS011;53237;46.158;14.604;2024-03-17T09:52:47;3.88;;;3.58;;
66425;SDS011;53237;46.158;14.604;2024-03-17T09:55:16;3.97;;;3.67;;
66425;SDS011;53237;46.158;14.604;2024-03-17T09:57:43;4.55;;;4.15;;
66425;SDS011;53237;46.158;14.604;2024-03-17T10:00:10;5.82;;;5.32;;
66425;SDS011;53237;46.158;14.604;2024-03-17T10:02:44;6.00;;;5.50;;
66425;SDS011;53237;46.158;14.604;2024-03-17T10:05:20;6.63;;;5.85;;
66425;SDS011;53237;46.158;14.604;2024-03-17T10:07:47;4.60;;;4.20;;
66425;SDS011;53237;46.158;14.604;2024-03-17T10:10:16;6.50;;;5.95;;
66425;SDS011;53237;46.158;14.604;2024-03-17T10:12:42;5.53;;;5.00;;
66425;SDS011;53237;46.158;14.604;2024-03-17T10:15:10;3.92;;;3.63;;
66425;SDS011;53237;46.158;14.604;2024-03-17T10:17:37;4.72;;;4.32;;
66425;SDS011;53237;46.158;14.604;2024-03-17T10:23:03;4.38;;;4.00;;
66425;SDS011;53237;46.158;14.604;2024-03-17T10:25:28;4.45;;;4.05;;
66425;SDS011;53237;46.158;14.604;2024-03-17T10:27:55;4.70;;;4.30;;
66425;SDS011;53237;46.158;14.604;2024-03-17T10:30:22;4.35;;;4.00;;
66425;SDS011;53237;46.158;14.604;2024-03-17T10:32:59;5.60;;;5.10;;
66425;SDS011;53237;46.158;14.604;2024-03-17T10:35:32;4.97;;;4.57;;
66425;SDS011;53237;46.158;14.604;2024-03-17T10:38:00;4.40;;;4.03;;
66425;SDS011;53237;46.158;14.604;2024-03-17T10:40:26;4.22;;;3.83;;
66425;SDS011;53237;46.158;14.604;2024-03-17T10:42:52;3.85;;;3.55;;
66425;SDS011;53237;46.158;14.604;2024-03-17T10:45:19;4.60;;;4.20;;
66425;SDS011;53237;46.158;14.604;2024-03-17T10:47:49;4.60;;;4.20;;
66425;SDS011;53237;46.158;14.604;2024-03-17T10:50:17;4.40;;;4.10;;
66425;SDS011;53237;46.158;14.604;2024-03-17T10:52:44;5.35;;;4.85;;
66425;SDS011;53237;46.158;14.604;2024-03-17T10:55:20;3.75;;;3.45;;
66425;SDS011;53237;46.158;14.604;2024-03-17T10:57:50;3.90;;;3.42;;
66425;SDS011;53237;46.158;14.604;2024-03-17T11:00:17;3.78;;;3.47;;
66425;SDS011;53237;46.158;14.604;2024-03-17T11:02:44;4.22;;;3.83;;
66425;SDS011;53237;46.158;14.604;2024-03-17T11:05:12;4.90;;;4.50;;
66425;SDS011;53237;46.158;14.604;2024-03-17T11:07:39;3.65;;;3.35;;
66425;SDS011;53237;46.158;14.604;2024-03-17T11:10:13;4.85;;;4.45;;
66425;SDS011;53237;46.158;14.604;2024-03-17T11:12:41;4.03;;;3.72;;
66425;SDS011;53237;46.158;14.604;2024-03-17T11:20:37;3.15;;;2.95;;
66425;SDS011;53237;46.158;14.604;2024-03-17T11:23:04;3.17;;;2.88;;
66425;SDS011;53237;46.158;14.604;2024-03-17T11:25:37;3.10;;;2.90;;
66425;SDS011;53237;46.158;14.604;2024-03-17T11:28:03;4.20;;;3.85;;
66425;SDS011;53237;46.158;14.604;2024-03-17T11:39:00;3.30;;;3.05;;
66425;SDS011;53237;46.158;14.604;2024-03-17T11:41:37;2.80;;;2.60;;
66425;SDS011;53237;46.158;14.604;2024-03-17T11:46:45;2.70;;;2.50;;
66425;SDS011;53237;46.158;14.604;2024-03-17T11:49:24;2.60;;;2.40;;
66425;SDS011;53237;46.158;14.604;2024-03-17T11:51:51;2.58;;;2.38;;
66425;SDS011;53237;46.158;14.604;2024-03-17T11:54:19;2.60;;;2.40;;
66425;SDS011;53237;46.158;14.604;2024-03-17T11:56:49;2.47;;;2.28;;
66425;SDS011;53237;46.158;14.604;2024-03-17T11:59:15;3.03;;;2.80;;
66425;SDS011;53237;46.158;14.604;2024-03-17T12:01:47;2.35;;;2.15;;
66425;SDS011;53237;46.158;14.604;2024-03-17T12:04:14;2.65;;;2.45;;
66425;SDS011;53237;46.158;14.604;2024-03-17T12:06:50;2.47;;;2.28;;
66425;SDS011;53237;46.158;14.604;2024-03-17T12:09:21;2.20;;;2.10;;
66425;SDS011;53237;46.158;14.604;2024-03-17T12:11:51;2.03;;;1.92;;
66425;SDS011;53237;46.158;14.604;2024-03-17T12:14:18;2.50;;;2.30;;
66425;SDS011;53237;46.158;14.604;2024-03-17T12:16:48;1.90;;;1.77;;
66425;SDS011;53237;46.158;14.604;2024-03-17T12:19:15;1.83;;;1.73;;
66425;SDS011;53237;46.158;14.604;2024-03-17T12:21:45;2.42;;;2.00;;
66425;SDS011;53237;46.158;14.604;2024-03-17T12:24:15;2.50;;;1.63;;
66425;SDS011;53237;46.158;14.604;2024-03-17T12:26:42;1.83;;;1.73;;
66425;SDS011;53237;46.158;14.604;2024-03-17T12:31:47;1.95;;;1.85;;
66425;SDS011;53237;46.158;14.604;2024-03-17T12:34:13;1.70;;;1.60;;
66425;SDS011;53237;46.158;14.604;2024-03-17T12:36:39;1.70;;;1.60;;
66425;SDS011;53237;46.158;14.604;2024-03-17T12:39:40;1.80;;;1.70;;
66425;SDS011;53237;46.158;14.604;2024-03-17T12:44:23;1.90;;;1.80;;
66425;SDS011;53237;46.158;14.604;2024-03-17T12:46:54;1.73;;;1.63;;
66425;SDS011;53237;46.158;14.604;2024-03-17T12:49:21;1.60;;;1.50;;
66425;SDS011;53237;46.158;14.604;2024-03-17T12:51:50;1.95;;;1.85;;
66425;SDS011;53237;46.158;14.604;2024-03-17T12:54:16;1.73;;;1.63;;
66425;SDS011;53237;46.158;14.604;2024-03-17T12:56:44;1.80;;;1.70;;
66425;SDS011;53237;46.158;14.604;2024-03-17T12:59:36;2.55;;;1.65;;
66425;SDS011;53237;46.158;14.604;2024-03-17T13:02:34;1.60;;;1.50;;
66425;SDS011;53237;46.158;14.604;2024-03-17T13:07:33;1.52;;;1.40;;
66425;SDS011;53237;46.158;14.604;2024-03-17T13:09:59;1.70;;;1.60;;
66425;SDS011;53237;46.158;14.604;2024-03-17T13:12:25;2.03;;;1.70;;
66425;SDS011;53237;46.158;14.604;2024-03-17T13:14:52;2.03;;;1.83;;
66425;SDS011;53237;46.158;14.604;2024-03-17T13:17:18;2.00;;;1.75;;
66425;SDS011;53237;46.158;14.604;2024-03-17T13:19:47;2.38;;;2.20;;
66425;SDS011;53237;46.158;14.604;2024-03-17T13:22:13;2.13;;;1.88;;
66425;SDS011;53237;46.158;14.604;2024-03-17T13:24:39;1.80;;;1.50;;
66425;SDS011;53237;46.158;14.604;2024-03-17T13:27:05;1.60;;;1.50;;
66425;SDS011;53237;46.158;14.604;2024-03-17T13:29:33;1.70;;;1.60;;
66425;SDS011;53237;46.158;14.604;2024-03-17T13:32:01;1.73;;;1.63;;
66425;SDS011;53237;46.158;14.604;2024-03-17T13:34:27;2.00;;;1.90;;
66425;SDS011;53237;46.158;14.604;2024-03-17T13:36:54;2.42;;;2.22;;
66425;SDS011;53237;46.158;14.604;2024-03-17T13:39:20;1.90;;;1.80;;
66425;SDS011;53237;46.158;14.604;2024-03-17T13:41:47;1.52;;;1.42;;
66425;SDS011;53237;46.158;14.604;2024-03-17T13:44:14;1.80;;;1.70;;
66425;SDS011;53237;46.158;14.604;2024-03-17T13:46:40;2.55;;;1.80;;
66425;SDS011;53237;46.158;14.604;2024-03-17T13:49:07;1.73;;;1.63;;
66425;SDS011;53237;46.158;14.604;2024-03-17T13:51:33;1.67;;;1.58;;
66425;SDS011;53237;46.158;14.604;2024-03-17T13:54:00;1.80;;;1.70;;
66425;SDS011;53237;46.158;14.604;2024-03-17T13:56:26;2.10;;;1.90;;
66425;SDS011;53237;46.158;14.604;2024-03-17T13:58:52;2.10;;;1.90;;
66425;SDS011;53237;46.158;14.604;2024-03-17T14:01:18;2.25;;;2.15;;
66425;SDS011;53237;46.158;14.604;2024-03-17T14:03:44;2.17;;;2.08;;
66425;SDS011;53237;46.158;14.604;2024-03-17T14:06:11;2.00;;;1.90;;
66425;SDS011;53237;46.158;14.604;2024-03-17T14:08:37;2.25;;;2.05;;
66425;SDS011;53237;46.158;14.604;2024-03-17T14:11:03;2.10;;;2.00;;
66425;SDS011;53237;46.158;14.604;2024-03-17T14:13:29;2.60;;;2.40;;
66425;SDS011;53237;46.158;14.604;2024-03-17T14:15:56;2.33;;;2.00;;
66425;SDS011;53237;46.158;14.604;2024-03-17T14:18:22;2.00;;;1.90;;
66425;SDS011;53237;46.158;14.604;2024-03-17T14:20:48;2.33;;;2.13;;
66425;SDS011;53237;46.158;14.604;2024-03-17T14:23:15;3.65;;;2.75;;
66425;SDS011;53237;46.158;14.604;2024-03-17T14:25:41;2.22;;;2.10;;
66425;SDS011;53237;46.158;14.604;2024-03-17T14:28:07;2.70;;;2.50;;
66425;SDS011;53237;46.158;14.604;2024-03-17T14:30:33;2.50;;;2.30;;
66425;SDS011;53237;46.158;14.604;2024-03-17T14:32:59;2.55;;;2.35;;
66425;SDS011;53237;46.158;14.604;2024-03-17T14:35:25;2.58;;;2.35;;
66425;SDS011;53237;46.158;14.604;2024-03-17T14:37:55;2.75;;;2.55;;
66425;SDS011;53237;46.158;14.604;2024-03-17T14:40:23;4.10;;;3.05;;
66425;SDS011;53237;46.158;14.604;2024-03-17T14:42:49;2.95;;;2.75;;
66425;SDS011;53237;46.158;14.604;2024-03-17T14:45:19;2.58;;;2.38;;
66425;SDS011;53237;46.158;14.604;2024-03-17T14:47:46;3.00;;;2.65;;
66425;SDS011;53237;46.158;14.604;2024-03-17T14:50:12;2.65;;;2.45;;
66425;SDS011;53237;46.158;14.604;2024-03-17T14:52:39;2.83;;;2.63;;
66425;SDS011;53237;46.158;14.604;2024-03-17T14:55:06;2.42;;;2.22;;
66425;SDS011;53237;46.158;14.604;2024-03-17T14:57:34;3.45;;;2.22;;
66425;SDS011;53237;46.158;14.604;2024-03-17T15:00:02;3.42;;;2.67;;
66425;SDS011;53237;46.158;14.604;2024-03-17T15:02:28;2.13;;;1.92;;
66425;SDS011;53237;46.158;14.604;2024-03-17T15:04:54;2.40;;;2.20;;
66425;SDS011;53237;46.158;14.604;2024-03-17T15:07:20;2.47;;;2.28;;